KOCW/OCW METAR and TAF weather

Enter ICAO airport designator
Station Type Date Time Source
KOCW METAR 2022/05/26 04:55 UTC NOAA

KOCW 260455Z AUTO 34006KT 10SM OVC004 17/16 A3024 RMK AO2 T01660157


Station Type Date Time Source
KOCW Decoded METAR 2022/05/26 04:55 UTC NOAA

Washington, Warren Field Airport, NC, United States (KOCW) 35-34-14N 077-02-59W
May 26, 2022 - 12:55 AM EDT / 2022.05.26 0455 UTC
Wind: from the NNW (340 degrees) at 7 MPH (6 KT):0
Visibility: 10 mile(s):0
Sky conditions: overcast
Temperature: 61.9 F (16.6 C)
Dew Point: 60.3 F (15.7 C)
Relative Humidity: 94%
Pressure (altimeter): 30.24 in. Hg (1024 hPa)
ob: KOCW 260455Z AUTO 34006KT 10SM OVC004 17/16 A3024 RMK AO2 T01660157
cycle: 5

Station Type Date Time Source
KOCW TAF UTC NOAA

Error!

Example: see airport list